createdAt,value
2022-12-06T07:01:23.668Z,2.16
2022-12-06T07:03:54.616Z,2.20
2022-12-06T07:06:22.532Z,2.20
2022-12-06T07:08:50.696Z,2.19
2022-12-06T07:11:18.471Z,2.19
2022-12-06T07:13:51.204Z,2.19
2022-12-06T07:16:20.674Z,2.19
2022-12-06T07:18:48.519Z,2.17
2022-12-06T07:21:16.635Z,2.16
2022-12-06T07:23:44.547Z,2.16
2022-12-06T07:26:13.634Z,2.16
2022-12-06T07:28:44.575Z,2.16
2022-12-06T07:31:27.522Z,2.15
2022-12-06T07:34:00.504Z,2.14
2022-12-06T07:36:32.874Z,2.13
2022-12-06T07:39:01.165Z,2.13
2022-12-06T07:41:48.574Z,2.14
2022-12-06T07:44:37.519Z,2.16
2022-12-06T07:47:05.405Z,2.18
2022-12-06T07:49:33.435Z,2.18
2022-12-06T07:52:01.531Z,2.18
2022-12-06T07:54:29.386Z,2.18
2022-12-06T07:56:57.248Z,2.17
2022-12-06T07:59:25.732Z,2.18
2022-12-06T08:01:54.314Z,2.18
2022-12-06T08:04:22.547Z,2.17
2022-12-06T08:06:50.717Z,2.15
2022-12-06T08:09:18.624Z,2.14
2022-12-06T08:11:46.489Z,2.13
2022-12-06T08:14:15.915Z,2.14
2022-12-06T08:16:43.748Z,2.14
2022-12-06T08:19:11.513Z,2.15
2022-12-06T08:21:39.385Z,2.16
2022-12-06T08:24:07.587Z,2.15
2022-12-06T08:26:36.416Z,2.14
2022-12-06T08:29:04.513Z,2.14
2022-12-06T08:31:34.861Z,2.13
2022-12-06T08:34:04.301Z,2.13
2022-12-06T08:36:32.174Z,2.13
2022-12-06T08:39:00.837Z,2.12
2022-12-06T08:41:47.500Z,2.12
2022-12-06T08:44:16.389Z,2.11
2022-12-06T08:46:44.332Z,2.10
2022-12-06T08:49:13.458Z,2.10
2022-12-06T08:51:41.614Z,2.12
2022-12-06T08:54:13.812Z,2.16
2022-12-06T08:56:42.070Z,2.19
2022-12-06T08:59:09.929Z,2.23
2022-12-06T09:01:38.914Z,2.28
2022-12-06T09:04:08.905Z,2.34
2022-12-06T09:06:39.063Z,2.40
2022-12-06T09:09:08.363Z,2.47
2022-12-06T09:11:36.332Z,2.51
2022-12-06T09:14:04.195Z,2.54
2022-12-06T09:16:32.011Z,2.58
2022-12-06T09:18:59.923Z,2.62
2022-12-06T09:21:33.132Z,2.65
2022-12-06T09:24:00.852Z,2.65
2022-12-06T09:26:28.986Z,2.66
2022-12-06T09:28:58.094Z,2.71
2022-12-06T09:31:26.344Z,2.72
2022-12-06T09:33:54.821Z,2.73
2022-12-06T09:36:28.257Z,2.71
2022-12-06T09:38:59.133Z,2.70
2022-12-06T09:41:58.636Z,2.71
2022-12-06T09:44:45.038Z,2.69
2022-12-06T09:47:18.591Z,2.68
2022-12-06T09:50:18.966Z,2.68
2022-12-06T09:53:11.300Z,2.68
2022-12-06T09:55:57.807Z,2.68
2022-12-06T09:58:41.939Z,2.68
2022-12-06T10:01:27.593Z,2.64
2022-12-06T10:04:07.292Z,2.59
2022-12-06T10:06:45.991Z,2.60
2022-12-06T10:09:30.767Z,2.60
2022-12-06T10:12:16.966Z,2.59
2022-12-06T10:14:56.596Z,2.60
2022-12-06T10:17:39.050Z,2.61
2022-12-06T10:20:41.479Z,2.61
2022-12-06T10:23:13.972Z,2.61
2022-12-06T10:26:01.920Z,2.63
2022-12-06T10:29:06.517Z,2.65
2022-12-06T10:31:56.293Z,2.69
2022-12-06T10:34:29.971Z,2.74
2022-12-06T10:37:23.441Z,2.78
2022-12-06T10:39:57.987Z,2.83
2022-12-06T10:43:05.194Z,2.88
2022-12-06T10:46:05.632Z,2.91
2022-12-06T10:49:06.140Z,2.96
2022-12-06T10:51:53.869Z,3.00
2022-12-06T10:54:33.920Z,3.01
2022-12-06T10:57:08.246Z,3.01
2022-12-06T10:59:48.911Z,3.00
2022-12-06T11:02:28.614Z,2.99
2022-12-06T11:05:02.248Z,2.97
2022-12-06T11:07:43.464Z,2.95
2022-12-06T11:10:33.607Z,2.92
2022-12-06T11:13:13.846Z,2.91
2022-12-06T11:15:50.902Z,2.92
2022-12-06T11:18:20.009Z,2.92
2022-12-06T11:20:53.975Z,2.92
2022-12-06T11:23:50.888Z,2.89
2022-12-06T11:26:37.608Z,2.82
2022-12-06T11:29:14.168Z,2.81
2022-12-06T11:31:44.121Z,2.82
2022-12-06T11:34:29.387Z,2.81
2022-12-06T11:37:00.435Z,2.82
2022-12-06T11:39:30.656Z,2.82
2022-12-06T11:42:03.125Z,2.83
2022-12-06T11:44:42.487Z,2.82
2022-12-06T11:47:17.780Z,2.81
2022-12-06T11:49:47.576Z,2.80
2022-12-06T11:52:21.269Z,2.79
2022-12-06T11:55:02.711Z,2.77
2022-12-06T11:57:41.074Z,2.72
2022-12-06T12:00:15.099Z,2.69
2022-12-06T12:02:46.518Z,2.69
2022-12-06T12:05:23.953Z,2.69
2022-12-06T12:08:04.950Z,2.68
2022-12-06T12:10:40.771Z,2.66
2022-12-06T12:13:30.110Z,2.65
2022-12-06T12:16:01.604Z,2.66
2022-12-06T12:18:33.541Z,2.67
2022-12-06T12:21:03.337Z,2.69
2022-12-06T12:23:43.195Z,2.70
2022-12-06T12:26:15.769Z,2.71
2022-12-06T12:28:47.006Z,2.72
2022-12-06T12:31:20.866Z,2.73
2022-12-06T12:33:49.906Z,2.72
2022-12-06T12:36:29.105Z,2.72
2022-12-06T12:39:01.173Z,2.67
2022-12-06T12:41:44.029Z,2.62
2022-12-06T12:44:37.651Z,2.60
2022-12-06T12:47:26.958Z,2.58
2022-12-06T12:50:18.798Z,2.59
2022-12-06T12:52:47.469Z,2.57
2022-12-06T12:55:22.958Z,2.55
2022-12-06T12:57:57.426Z,2.53
2022-12-06T13:00:30.881Z,2.52
2022-12-06T13:03:02.131Z,2.49
2022-12-06T13:05:34.814Z,2.49
2022-12-06T13:08:19.065Z,2.50
2022-12-06T13:10:54.128Z,2.49
2022-12-06T13:13:32.544Z,2.49
2022-12-06T13:16:05.899Z,2.45
2022-12-06T13:18:44.972Z,2.45
2022-12-06T13:21:37.799Z,2.46
2022-12-06T13:24:11.556Z,2.46
2022-12-06T13:26:54.462Z,2.47
2022-12-06T13:29:35.602Z,2.47
2022-12-06T13:32:22.109Z,2.48
2022-12-06T13:35:04.817Z,2.49
2022-12-06T13:37:44.914Z,2.50
2022-12-06T13:40:52.526Z,2.53
2022-12-06T13:43:23.204Z,2.52
2022-12-06T13:46:16.288Z,2.52
2022-12-06T13:48:50.119Z,2.49
2022-12-06T13:51:33.205Z,2.47
2022-12-06T13:54:03.866Z,2.42
2022-12-06T13:56:34.598Z,2.40
2022-12-06T13:59:05.607Z,2.39
2022-12-06T14:01:40.421Z,2.37
2022-12-06T14:09:41.200Z,2.36
2022-12-06T14:12:29.544Z,2.36
2022-12-06T14:15:02.537Z,2.34
2022-12-06T14:20:30.828Z,2.32
2022-12-06T14:22:59.189Z,2.34
2022-12-06T14:25:29.781Z,2.34
2022-12-06T14:28:13.467Z,2.34
2022-12-06T14:30:42.241Z,2.33
2022-12-06T14:33:22.935Z,2.32
2022-12-06T14:35:53.149Z,2.31
2022-12-06T14:38:29.823Z,2.30
2022-12-06T14:41:16.725Z,2.31
2022-12-06T14:43:47.434Z,2.27
2022-12-06T14:46:17.701Z,2.27
2022-12-06T14:49:04.990Z,2.25
2022-12-06T14:51:40.781Z,2.23
2022-12-06T14:54:26.760Z,2.22
2022-12-06T14:56:54.525Z,2.23
2022-12-06T15:00:02.919Z,2.25
2022-12-06T15:02:28.925Z,2.27
2022-12-06T15:04:58.407Z,2.28
2022-12-06T15:07:38.570Z,2.30
2022-12-06T15:10:20.860Z,2.28
2022-12-06T15:12:56.048Z,2.28
2022-12-06T15:15:36.518Z,2.26
2022-12-06T15:18:28.594Z,2.23
2022-12-06T15:20:56.499Z,2.21
2022-12-06T15:23:38.396Z,2.18
2022-12-06T15:26:10.396Z,2.13
2022-12-06T15:28:38.191Z,2.11
2022-12-06T15:31:13.696Z,2.11
2022-12-06T15:33:41.504Z,2.09
2022-12-06T15:36:17.880Z,2.05
2022-12-06T15:38:45.960Z,2.03
2022-12-06T15:41:16.891Z,2.00
2022-12-06T15:43:45.173Z,1.98
2022-12-06T15:46:27.595Z,1.99
2022-12-06T15:48:56.170Z,1.99
2022-12-06T15:51:26.836Z,1.99
2022-12-06T15:53:56.720Z,1.98
2022-12-06T15:56:28.576Z,1.98
2022-12-06T15:58:56.349Z,1.97
2022-12-06T16:01:31.598Z,1.90
2022-12-06T16:03:59.647Z,1.89
2022-12-06T16:06:29.460Z,1.86
2022-12-06T16:08:57.320Z,1.82
2022-12-06T16:11:26.947Z,1.81
2022-12-06T16:13:54.792Z,1.80
2022-12-06T16:16:22.880Z,1.78
2022-12-06T16:18:51.988Z,1.76
2022-12-06T16:21:21.383Z,1.73
2022-12-06T16:24:16.502Z,1.70
2022-12-06T16:26:45.388Z,1.66
2022-12-06T16:29:21.013Z,1.64
2022-12-06T16:31:49.575Z,1.61
2022-12-06T16:34:17.940Z,1.58
2022-12-06T16:37:00.713Z,1.55
2022-12-06T16:39:30.772Z,1.50
2022-12-06T16:41:58.827Z,1.45
2022-12-06T16:44:26.793Z,1.39
2022-12-06T16:46:54.763Z,1.32
2022-12-06T16:52:14.638Z,1.22
2022-12-06T16:54:42.765Z,1.20
2022-12-06T16:57:14.585Z,1.15
2022-12-06T16:59:42.898Z,1.11
2022-12-06T17:02:29.387Z,1.08
2022-12-06T17:05:06.508Z,1.07
2022-12-06T17:07:35.947Z,1.06
2022-12-06T17:10:04.568Z,1.02
2022-12-06T17:12:32.967Z,0.99
2022-12-06T17:15:01.229Z,0.96
2022-12-06T17:17:29.567Z,0.93
2022-12-06T17:19:57.469Z,0.91
2022-12-06T17:22:25.245Z,0.91
2022-12-06T17:24:53.402Z,0.91
2022-12-06T17:27:21.894Z,0.90
2022-12-06T17:29:49.752Z,0.87
2022-12-06T17:32:18.667Z,0.86
2022-12-06T17:34:47.026Z,0.83
2022-12-06T17:37:15.169Z,0.82
2022-12-06T17:39:42.894Z,0.78
2022-12-06T17:42:30.706Z,0.77
2022-12-06T17:44:58.768Z,0.76
2022-12-06T17:47:26.718Z,0.74
2022-12-06T17:49:56.367Z,0.75
2022-12-06T17:52:24.827Z,0.74
2022-12-06T17:54:52.580Z,0.75
2022-12-06T17:57:20.332Z,0.77
2022-12-06T17:59:48.823Z,0.78
2022-12-06T18:02:19.864Z,0.75
2022-12-06T18:04:48.397Z,0.71
2022-12-06T18:07:17.753Z,0.70
2022-12-06T18:09:46.041Z,0.69
2022-12-06T18:12:16.039Z,0.68
2022-12-06T18:14:44.924Z,0.66
2022-12-06T18:17:12.893Z,0.65
2022-12-06T18:19:40.934Z,0.62
2022-12-06T18:22:09.038Z,0.62
2022-12-06T18:24:36.902Z,0.59
2022-12-06T18:27:06.329Z,0.57
2022-12-06T18:29:34.675Z,0.54
2022-12-06T18:32:03.937Z,0.53
2022-12-06T18:34:31.840Z,0.51
2022-12-06T18:36:59.673Z,0.49
2022-12-06T18:39:28.138Z,0.48
2022-12-06T18:41:56.290Z,0.48
2022-12-06T18:44:24.876Z,0.49
2022-12-06T18:46:53.019Z,0.50
2022-12-06T18:49:21.089Z,0.50
2022-12-06T18:51:49.047Z,0.50
2022-12-06T18:54:16.822Z,0.50
2022-12-06T18:56:44.830Z,0.51
2022-12-06T18:59:13.057Z,0.52
2022-12-06T19:01:41.845Z,0.51
2022-12-06T19:04:14.891Z,0.51
2022-12-06T19:06:44.584Z,0.49
2022-12-06T19:09:15.669Z,0.49
2022-12-06T19:11:45.966Z,0.47
2022-12-06T19:14:14.458Z,0.49
2022-12-06T19:16:47.555Z,0.51
2022-12-06T19:19:24.141Z,0.53
2022-12-06T19:21:53.849Z,0.55
2022-12-06T19:24:24.476Z,0.55
2022-12-06T19:26:54.225Z,0.54
2022-12-06T19:29:22.467Z,0.55
2022-12-06T19:31:50.850Z,0.56
2022-12-06T19:34:24.851Z,0.54
2022-12-06T19:36:54.269Z,0.53
2022-12-06T19:39:22.220Z,0.51
2022-12-06T19:42:09.083Z,0.48
2022-12-06T19:44:37.133Z,0.46
2022-12-06T19:47:05.061Z,0.47
2022-12-06T19:49:32.847Z,0.46
2022-12-06T19:52:01.402Z,0.47
2022-12-06T19:54:31.085Z,0.47
2022-12-06T19:57:00.723Z,0.47
2022-12-06T19:59:31.147Z,0.45
2022-12-06T20:01:59.133Z,0.45
2022-12-06T20:04:33.152Z,0.45
2022-12-06T20:07:01.041Z,0.45
2022-12-06T20:09:30.949Z,0.45
2022-12-06T20:12:04.720Z,0.45
2022-12-06T20:14:34.893Z,0.44
2022-12-06T20:17:05.726Z,0.43
2022-12-06T20:19:34.375Z,0.43
2022-12-06T20:22:02.439Z,0.43
2022-12-06T20:24:30.861Z,0.42
2022-12-06T20:26:58.738Z,0.41
2022-12-06T20:29:27.270Z,0.40
2022-12-06T20:31:58.174Z,0.38
2022-12-06T20:34:29.338Z,0.37
2022-12-06T20:36:57.403Z,0.39
2022-12-06T20:39:27.531Z,0.40
2022-12-06T20:41:55.895Z,0.41
2022-12-06T20:44:24.240Z,0.41
2022-12-06T20:46:53.781Z,0.41
2022-12-06T20:49:23.900Z,0.43
2022-12-06T20:51:53.850Z,0.43
2022-12-06T20:54:26.904Z,0.43
2022-12-06T20:56:55.125Z,0.45
2022-12-06T20:59:23.027Z,0.45
2022-12-06T21:01:51.094Z,0.46
2022-12-06T21:04:19.022Z,0.47
2022-12-06T21:06:46.799Z,0.46
2022-12-06T21:09:14.510Z,0.45
2022-12-06T21:11:42.248Z,0.45
2022-12-06T21:14:11.992Z,0.46
2022-12-06T21:16:41.768Z,0.47
2022-12-06T21:19:14.193Z,0.48
2022-12-06T21:21:48.200Z,0.48
2022-12-06T21:24:20.102Z,0.48
2022-12-06T21:26:48.506Z,0.46
2022-12-06T21:29:19.037Z,0.46
2022-12-06T21:31:47.226Z,0.46
2022-12-06T21:34:15.899Z,0.47
2022-12-06T21:36:44.526Z,0.48
2022-12-06T21:39:13.528Z,0.49
2022-12-06T21:41:41.553Z,0.49
2022-12-06T21:44:09.650Z,0.48
2022-12-06T21:46:38.009Z,0.49
2022-12-06T21:49:06.243Z,0.49
2022-12-06T21:51:34.049Z,0.51
2022-12-06T21:54:02.585Z,0.52
2022-12-06T21:56:31.259Z,0.53
2022-12-06T21:59:02.208Z,0.52
